createdAt,value
2018-04-24T00:00:19.273Z,93.60
2018-04-24T00:03:22.482Z,94.10
2018-04-24T00:06:25.656Z,94.20
2018-04-24T00:09:29.588Z,93.60
2018-04-24T00:12:32.759Z,93.60
2018-04-24T00:15:35.949Z,93.70
2018-04-24T00:18:39.233Z,93.40
2018-04-24T00:21:42.422Z,93.60
2018-04-24T00:24:45.603Z,94.40
2018-04-24T00:27:48.809Z,94.10
2018-04-24T00:30:52.760Z,93.80
2018-04-24T00:33:55.953Z,93.70
2018-04-24T00:36:59.903Z,94.60
2018-04-24T00:40:03.039Z,94.60
2018-04-24T00:43:06.983Z,94.40
2018-04-24T00:46:10.151Z,94.10
2018-04-24T00:49:14.087Z,94.20
2018-04-24T00:52:17.846Z,94.10
2018-04-24T00:55:21.043Z,94.40
2018-04-24T00:58:24.224Z,93.80
2018-04-24T01:01:27.420Z,93.90
2018-04-24T01:04:30.595Z,94.40
2018-04-24T01:07:33.760Z,94.00
2018-04-24T01:10:36.942Z,94.60
2018-04-24T01:13:40.862Z,94.90
2018-04-24T01:16:44.829Z,95.10
2018-04-24T01:19:48.006Z,95.10
2018-04-24T01:22:51.370Z,95.20
2018-04-24T01:25:55.296Z,94.90
2018-04-24T01:28:58.482Z,94.90
2018-04-24T01:32:01.769Z,94.60
2018-04-24T01:35:05.711Z,94.80
2018-04-24T01:38:08.885Z,94.70
2018-04-24T01:41:12.072Z,94.80
2018-04-24T01:44:15.300Z,94.70
2018-04-24T01:47:18.467Z,95.10
2018-04-24T01:50:21.656Z,95.00
2018-04-24T01:53:24.852Z,94.50
2018-04-24T01:56:28.795Z,95.20
2018-04-24T01:59:31.964Z,95.10
2018-04-24T02:02:35.128Z,94.40
2018-04-24T02:05:39.186Z,94.70
2018-04-24T02:08:42.349Z,94.70
2018-04-24T02:11:46.275Z,94.50
2018-04-24T02:14:49.462Z,94.50
2018-04-24T02:17:53.398Z,95.10
2018-04-24T02:20:56.562Z,95.00
2018-04-24T02:23:59.739Z,94.90
2018-04-24T02:27:05.668Z,94.90
2018-04-24T02:30:08.853Z,94.70
2018-04-24T02:33:12.784Z,95.40
2018-04-24T02:36:15.984Z,95.30
2018-04-24T02:39:19.923Z,95.50
2018-04-24T02:42:23.105Z,95.40
2018-04-24T02:45:27.049Z,95.40
2018-04-24T02:48:30.215Z,95.40
2018-04-24T02:51:33.393Z,95.60
2018-04-24T02:54:37.468Z,95.80
2018-04-24T02:57:40.748Z,95.80
2018-04-24T03:00:43.917Z,95.90
2018-04-24T03:03:47.862Z,95.70
2018-04-24T03:06:51.761Z,95.60
2018-04-24T03:09:54.947Z,95.80
2018-04-24T03:12:58.126Z,95.80
2018-04-24T03:16:02.236Z,95.70
2018-04-24T03:19:07.848Z,96.40
2018-04-24T03:22:11.453Z,96.40
2018-04-24T03:25:14.671Z,95.80
2018-04-24T03:28:18.624Z,95.30
2018-04-24T03:31:21.804Z,95.20
2018-04-24T03:34:24.980Z,95.40
2018-04-24T03:37:28.986Z,95.90
2018-04-24T03:40:32.169Z,95.80
2018-04-24T03:43:35.346Z,95.50
2018-04-24T03:46:38.547Z,95.00
2018-04-24T03:49:41.945Z,95.20
2018-04-24T03:52:45.785Z,94.80
2018-04-24T03:55:48.937Z,94.80
2018-04-24T03:58:52.135Z,94.70
2018-04-24T04:01:55.364Z,94.70
2018-04-24T04:04:59.294Z,94.90
2018-04-24T04:08:02.574Z,94.80
2018-04-24T04:11:05.788Z,94.70
2018-04-24T04:14:08.963Z,94.60
2018-04-24T04:17:24.825Z,94.80
2018-04-24T04:20:39.999Z,94.70
2018-04-24T04:23:55.170Z,94.70
2018-04-24T04:27:00.003Z,94.90
2018-04-24T04:30:03.320Z,94.70
2018-04-24T04:33:06.789Z,94.60
2018-04-24T04:36:10.090Z,94.20
2018-04-24T04:39:13.334Z,93.30
2018-04-24T04:42:16.612Z,93.60
2018-04-24T04:45:20.603Z,93.60
2018-04-24T04:48:24.159Z,93.40
2018-04-24T04:51:27.423Z,93.10
2018-04-24T04:54:30.697Z,92.90
2018-04-24T04:57:33.990Z,93.30
2018-04-24T05:00:37.261Z,93.10
2018-04-24T05:03:40.477Z,93.00
2018-04-24T05:06:43.853Z,93.60
2018-04-24T05:09:47.121Z,92.70
2018-04-24T05:12:50.399Z,92.90
2018-04-24T05:15:53.766Z,92.50
2018-04-24T05:18:57.020Z,93.10
2018-04-24T05:22:00.945Z,92.10
2018-04-24T05:25:04.229Z,92.40
2018-04-24T05:28:07.548Z,90.70
2018-04-24T05:31:10.801Z,92.10
2018-04-24T05:34:14.874Z,90.20
2018-04-24T05:37:18.167Z,90.00
2018-04-24T05:40:21.438Z,87.90
2018-04-24T05:43:24.712Z,88.90
2018-04-24T05:46:27.999Z,86.90
2018-04-24T05:49:31.283Z,88.60
2018-04-24T05:52:35.140Z,85.00
2018-04-24T05:55:38.487Z,85.90
2018-04-24T05:58:41.988Z,84.30
2018-04-24T06:01:46.063Z,84.40
2018-04-24T06:04:50.120Z,82.50
2018-04-24T06:07:53.536Z,82.00
2018-04-24T06:10:56.771Z,80.80
2018-04-24T06:14:00.070Z,79.30
2018-04-24T06:17:03.386Z,80.20
2018-04-24T06:20:06.725Z,76.20
2018-04-24T06:23:10.662Z,77.30
2018-04-24T06:26:13.992Z,76.60
2018-04-24T06:29:17.300Z,76.90
2018-04-24T06:32:20.647Z,76.30
2018-04-24T06:35:23.901Z,74.40
2018-04-24T06:38:27.179Z,74.30
2018-04-24T06:41:30.444Z,65.70
2018-04-24T06:44:33.682Z,68.20
2018-04-24T06:47:37.699Z,65.00
2018-04-24T06:50:41.696Z,64.60
2018-04-24T06:53:46.337Z,64.80
2018-04-24T06:56:50.383Z,64.50
2018-04-24T06:59:53.694Z,64.20
2018-04-24T07:02:56.984Z,63.70
2018-04-24T07:06:00.229Z,64.30
2018-04-24T07:09:03.547Z,62.40
2018-04-24T07:12:06.870Z,64.90
2018-04-24T07:15:10.130Z,66.30
2018-04-24T07:18:13.353Z,68.30
2018-04-24T07:21:16.577Z,70.30
2018-04-24T07:24:20.385Z,68.70
2018-04-24T07:27:23.606Z,69.80
2018-04-24T07:30:26.825Z,68.40
2018-04-24T07:33:30.868Z,65.70
2018-04-24T07:36:34.123Z,65.40
2018-04-24T07:39:38.275Z,60.10
2018-04-24T07:42:47.504Z,59.80
2018-04-24T07:45:51.014Z,60.10
2018-04-24T07:48:54.993Z,59.50
2018-04-24T07:51:58.222Z,59.30
2018-04-24T07:55:02.210Z,56.70
2018-04-24T07:58:05.479Z,56.30
2018-04-24T08:01:08.775Z,53.10
2018-04-24T08:04:12.009Z,50.90
2018-04-24T08:07:16.034Z,46.10
2018-04-24T08:10:19.310Z,45.90
2018-04-24T08:13:22.580Z,43.90
2018-04-24T08:16:25.803Z,41.60
2018-04-24T08:19:29.552Z,41.60
2018-04-24T08:22:39.669Z,41.90
2018-04-24T08:25:43.749Z,41.20
2018-04-24T08:28:47.044Z,41.00
2018-04-24T08:31:50.325Z,39.30
2018-04-24T08:34:53.558Z,41.10
2018-04-24T08:37:56.845Z,41.20
2018-04-24T08:41:00.098Z,41.90
2018-04-24T08:44:03.869Z,39.50
2018-04-24T08:47:07.152Z,37.80
2018-04-24T08:50:10.457Z,41.30
2018-04-24T08:53:14.406Z,39.20
2018-04-24T08:56:18.368Z,42.30
2018-04-24T08:59:22.377Z,42.70
2018-04-24T09:02:25.636Z,42.40
2018-04-24T09:05:28.878Z,43.00
2018-04-24T09:08:32.187Z,44.40
2018-04-24T09:11:35.328Z,44.80
2018-04-24T09:14:39.011Z,46.10
2018-04-24T09:17:42.419Z,43.80
2018-04-24T09:20:45.647Z,44.80
2018-04-24T09:23:48.868Z,42.80
2018-04-24T09:26:52.959Z,39.80
2018-04-24T09:30:03.497Z,39.10
2018-04-24T09:33:06.698Z,39.00
2018-04-24T09:36:10.149Z,38.20
2018-04-24T09:39:14.113Z,37.60
2018-04-24T09:42:17.319Z,37.10
2018-04-24T09:45:20.515Z,37.10
2018-04-24T09:48:23.732Z,35.40
2018-04-24T09:51:27.005Z,29.80
2018-04-24T09:54:30.231Z,36.50
2018-04-24T09:57:33.461Z,34.50
2018-04-24T10:00:36.659Z,33.60
2018-04-24T10:03:39.862Z,35.80
2018-04-24T10:06:43.301Z,34.40
2018-04-24T10:09:46.575Z,33.60
2018-04-24T10:12:49.778Z,35.60
2018-04-24T10:15:53.055Z,35.90
2018-04-24T10:18:56.269Z,34.50
2018-04-24T10:21:59.468Z,36.00
2018-04-24T10:25:03.557Z,37.40
2018-04-24T10:28:06.736Z,37.00
2018-04-24T10:31:09.909Z,38.90
2018-04-24T10:34:13.857Z,40.30
2018-04-24T10:37:17.090Z,40.30
2018-04-24T10:40:20.301Z,40.00
2018-04-24T10:43:24.255Z,36.10
2018-04-24T10:46:27.402Z,36.00
2018-04-24T10:49:30.585Z,39.70
2018-04-24T10:52:34.663Z,38.30
2018-04-24T10:55:37.847Z,39.30
2018-04-24T10:58:42.704Z,41.60
2018-04-24T11:01:46.332Z,41.50
2018-04-24T11:04:49.507Z,39.00
2018-04-24T11:07:52.715Z,40.80
2018-04-24T11:10:56.483Z,40.10
2018-04-24T11:13:59.677Z,36.60
2018-04-24T11:17:02.895Z,39.50
2018-04-24T11:20:06.035Z,37.70
2018-04-24T11:23:09.200Z,39.70
2018-04-24T11:26:13.170Z,39.70
2018-04-24T11:29:16.364Z,39.80
2018-04-24T11:32:19.525Z,39.60
2018-04-24T11:35:22.706Z,40.90
2018-04-24T11:38:25.881Z,42.80
2018-04-24T11:41:29.212Z,42.10
2018-04-24T11:44:33.144Z,40.30
2018-04-24T11:47:36.322Z,43.20
2018-04-24T11:50:40.557Z,42.60
2018-04-24T11:53:43.773Z,42.70
2018-04-24T11:56:46.943Z,42.70
2018-04-24T11:59:50.867Z,43.50
2018-04-24T12:02:54.073Z,43.50
2018-04-24T12:05:57.248Z,44.60
2018-04-24T12:09:01.161Z,43.30
2018-04-24T12:12:04.567Z,43.30
2018-04-24T12:15:10.792Z,44.60
2018-04-24T12:18:14.878Z,45.80
2018-04-24T12:21:18.054Z,45.30
2018-04-24T12:24:21.288Z,47.30
2018-04-24T12:27:24.454Z,47.30
2018-04-24T12:30:27.641Z,47.60
2018-04-24T12:33:30.813Z,47.90
2018-04-24T12:36:34.020Z,47.10
2018-04-24T12:39:37.203Z,46.30
2018-04-24T12:42:41.286Z,46.40
2018-04-24T12:45:45.408Z,47.50
2018-04-24T12:48:48.705Z,47.40
2018-04-24T12:51:51.941Z,47.00
2018-04-24T12:54:55.155Z,47.00
2018-04-24T12:57:58.434Z,47.50
2018-04-24T13:01:01.577Z,47.00
2018-04-24T13:04:04.958Z,46.20
2018-04-24T13:07:08.217Z,46.00
2018-04-24T13:10:11.414Z,45.70
2018-04-24T13:13:14.644Z,46.50
2018-04-24T13:16:17.835Z,48.20
2018-04-24T13:19:21.834Z,49.80
2018-04-24T13:22:25.048Z,49.70
2018-04-24T13:25:28.260Z,48.60
2018-04-24T13:28:31.412Z,47.30
2018-04-24T13:31:34.615Z,49.30
2018-04-24T13:34:37.834Z,48.50
2018-04-24T13:37:41.920Z,48.70
2018-04-24T13:40:45.126Z,48.50
2018-04-24T13:43:48.333Z,48.30
2018-04-24T13:46:52.458Z,48.80
2018-04-24T13:49:55.652Z,47.20
2018-04-24T13:52:58.862Z,48.00
2018-04-24T13:56:02.825Z,49.30
2018-04-24T13:59:06.056Z,49.10
2018-04-24T14:02:10.055Z,50.80
2018-04-24T14:05:14.086Z,49.80
2018-04-24T14:08:17.307Z,49.40
2018-04-24T14:11:20.529Z,50.80
2018-04-24T14:14:24.492Z,49.80
2018-04-24T14:17:28.460Z,49.10
2018-04-24T14:20:32.619Z,49.00
2018-04-24T14:23:35.818Z,50.40
2018-04-24T14:26:38.973Z,49.30
2018-04-24T14:29:42.286Z,50.90
2018-04-24T14:32:45.554Z,51.20
2018-04-24T14:35:48.739Z,51.50
2018-04-24T14:38:51.917Z,51.00
2018-04-24T14:41:55.068Z,51.90
2018-04-24T14:44:58.248Z,51.50
2018-04-24T14:48:02.288Z,51.20
2018-04-24T14:51:06.233Z,51.20
2018-04-24T14:54:09.401Z,51.10
2018-04-24T14:57:12.552Z,52.10
2018-04-24T15:00:15.730Z,52.90
2018-04-24T15:05:58.231Z,52.50
2018-04-24T15:09:01.405Z,52.80
2018-04-24T15:12:06.291Z,53.10
2018-04-24T15:15:09.428Z,52.40
2018-04-24T15:18:12.610Z,51.10
2018-04-24T15:21:15.779Z,51.60
2018-04-24T15:24:18.996Z,52.60
2018-04-24T15:27:22.155Z,52.20
2018-04-24T15:30:25.316Z,52.90
2018-04-24T15:33:29.225Z,52.40
2018-04-24T15:36:32.390Z,52.30
2018-04-24T15:39:35.545Z,52.70
2018-04-24T15:42:39.431Z,52.60
2018-04-24T15:45:42.895Z,53.80
2018-04-24T15:48:46.026Z,53.20
2018-04-24T15:51:49.278Z,53.10
2018-04-24T15:54:52.502Z,52.80
2018-04-24T15:57:55.635Z,52.60
2018-04-24T16:00:58.773Z,52.90
2018-04-24T16:04:02.721Z,54.40
2018-04-24T16:07:05.874Z,54.30
2018-04-24T16:10:09.049Z,52.80
2018-04-24T16:13:12.208Z,52.40
2018-04-24T16:16:15.714Z,54.40
2018-04-24T16:19:18.881Z,52.80
2018-04-24T16:22:22.819Z,54.00
2018-04-24T16:25:25.967Z,53.80
2018-04-24T16:28:29.144Z,53.60
2018-04-24T16:31:32.305Z,53.40
2018-04-24T16:34:35.465Z,54.30
2018-04-24T16:37:39.376Z,55.50
2018-04-24T16:40:42.898Z,55.40
2018-04-24T16:43:46.078Z,55.80
2018-04-24T16:46:49.585Z,56.60
2018-04-24T16:49:52.770Z,56.20
2018-04-24T16:52:55.948Z,56.40
2018-04-24T16:55:59.108Z,56.20
2018-04-24T16:59:02.274Z,56.00
2018-04-24T17:02:05.450Z,56.10
2018-04-24T17:05:08.610Z,56.50
2018-04-24T17:08:11.777Z,57.00
2018-04-24T17:11:14.971Z,56.80
2018-04-24T17:14:18.114Z,57.60
2018-04-24T17:17:21.327Z,56.10
2018-04-24T17:20:25.133Z,56.90
2018-04-24T17:23:29.221Z,57.10
2018-04-24T17:26:32.404Z,57.10
2018-04-24T17:29:35.607Z,57.80
2018-04-24T17:32:39.563Z,57.60
2018-04-24T17:35:42.782Z,57.60
2018-04-24T17:38:45.942Z,58.00
2018-04-24T17:41:49.112Z,57.70
2018-04-24T17:44:52.296Z,58.50
2018-04-24T17:47:56.239Z,58.30
2018-04-24T17:50:59.417Z,58.30
2018-04-24T17:54:02.611Z,58.40
2018-04-24T17:57:05.871Z,58.90
2018-04-24T18:00:09.004Z,59.30
2018-04-24T18:03:12.199Z,59.30
2018-04-24T18:06:15.374Z,59.70
2018-04-24T18:09:18.532Z,60.70
2018-04-24T18:12:21.709Z,60.60
2018-04-24T18:15:24.891Z,61.00
2018-04-24T18:18:28.072Z,62.10
2018-04-24T18:21:31.369Z,62.80
2018-04-24T18:24:34.883Z,62.40
2018-04-24T18:27:38.180Z,63.30
2018-04-24T18:30:42.355Z,65.20
2018-04-24T18:33:45.499Z,65.10
2018-04-24T18:36:48.700Z,65.70
2018-04-24T18:39:51.874Z,65.80
2018-04-24T18:42:55.069Z,64.60
2018-04-24T18:45:58.255Z,65.80
2018-04-24T18:49:01.435Z,66.10
2018-04-24T18:52:04.607Z,68.70
2018-04-24T18:55:07.811Z,67.00
2018-04-24T18:58:11.788Z,66.80
2018-04-24T19:01:14.948Z,66.90
2018-04-24T19:04:18.122Z,67.20
2018-04-24T19:07:21.296Z,69.60
2018-04-24T19:10:24.460Z,70.20
2018-04-24T19:13:27.632Z,70.00
2018-04-24T19:16:30.789Z,70.10
2018-04-24T19:19:34.747Z,68.60
2018-04-24T19:22:37.898Z,68.50
2018-04-24T19:25:43.780Z,69.10
2018-04-24T19:28:49.943Z,69.10
2018-04-24T19:31:58.902Z,69.00
2018-04-24T19:35:02.177Z,69.10
2018-04-24T19:38:05.335Z,67.60
2018-04-24T19:41:14.950Z,68.80
2018-04-24T19:44:18.188Z,68.70
2018-04-24T19:47:21.382Z,68.20
2018-04-24T19:50:24.580Z,67.50
2018-04-24T19:53:27.777Z,67.10
2018-04-24T19:56:30.945Z,67.30
2018-04-24T19:59:34.893Z,66.90
2018-04-24T20:02:38.579Z,66.80
2018-04-24T20:05:41.909Z,67.20
2018-04-24T20:08:45.080Z,67.30
2018-04-24T20:11:48.256Z,66.90
2018-04-24T20:14:52.984Z,68.90
2018-04-24T20:17:56.223Z,68.80
2018-04-24T20:21:00.364Z,67.40
2018-04-24T20:24:03.575Z,68.80
2018-04-24T20:27:06.788Z,67.00
2018-04-24T20:30:10.716Z,66.70
2018-04-24T20:33:13.938Z,66.50
2018-04-24T20:36:17.080Z,66.00
2018-04-24T20:39:20.260Z,67.60
2018-04-24T20:42:24.215Z,69.00
2018-04-24T20:45:28.200Z,68.90
2018-04-24T20:48:31.349Z,67.10
2018-04-24T20:51:34.504Z,69.10
2018-04-24T20:54:37.682Z,67.50
2018-04-24T20:57:40.834Z,66.60
2018-04-24T21:00:44.014Z,69.60
2018-04-24T21:03:47.185Z,67.00
2018-04-24T21:06:50.372Z,68.40
2018-04-24T21:09:53.561Z,69.70
2018-04-24T21:12:57.534Z,68.50
2018-04-24T21:16:00.714Z,68.50
2018-04-24T21:19:05.084Z,70.80
2018-04-24T21:22:08.362Z,70.80
2018-04-24T21:25:11.642Z,70.20
2018-04-24T21:28:14.828Z,69.50
2018-04-24T21:31:18.027Z,68.80
2018-04-24T21:34:21.208Z,71.00
2018-04-24T21:37:25.157Z,68.60
2018-04-24T21:40:29.099Z,71.60
2018-04-24T21:43:32.397Z,71.40
2018-04-24T21:46:35.760Z,70.90
2018-04-24T21:49:39.442Z,69.10
2018-04-24T21:52:42.909Z,70.10
2018-04-24T21:55:46.157Z,68.90
2018-04-24T21:58:50.202Z,65.70
2018-04-24T22:01:53.459Z,65.10
2018-04-24T22:04:56.741Z,63.70
2018-04-24T22:08:00.766Z,63.40
2018-04-24T22:11:04.065Z,63.00
2018-04-24T22:14:07.436Z,63.00
2018-04-24T22:17:11.122Z,62.30
2018-04-24T22:20:17.251Z,62.90
2018-04-24T22:23:20.500Z,64.00
2018-04-24T22:26:23.739Z,67.10
2018-04-24T22:29:27.729Z,67.00
2018-04-24T22:32:31.697Z,68.40
2018-04-24T22:35:34.934Z,68.20
2018-04-24T22:38:38.126Z,65.00
2018-04-24T22:41:41.475Z,67.00
2018-04-24T22:44:44.826Z,67.70
2018-04-24T22:47:48.752Z,69.70
2018-04-24T22:50:52.695Z,66.70
2018-04-24T22:53:55.880Z,66.00
2018-04-24T22:56:59.861Z,69.50
2018-04-24T23:00:03.030Z,69.30
2018-04-24T23:03:06.243Z,70.80
2018-04-24T23:06:09.390Z,69.60
2018-04-24T23:09:12.549Z,69.10
2018-04-24T23:12:27.641Z,70.60
2018-04-24T23:15:43.460Z,69.00
2018-04-24T23:18:58.577Z,68.90
2018-04-24T23:22:01.268Z,70.60
2018-04-24T23:25:05.233Z,72.10
2018-04-24T23:28:08.453Z,72.00
2018-04-24T23:31:11.636Z,69.70
2018-04-24T23:34:14.790Z,68.50
2018-04-24T23:37:17.963Z,71.60
2018-04-24T23:40:21.931Z,73.30
2018-04-24T23:43:25.433Z,73.20
2018-04-24T23:46:28.604Z,72.80
2018-04-24T23:49:31.842Z,72.90
2018-04-24T23:52:35.007Z,72.80
2018-04-24T23:55:38.171Z,72.70
2018-04-24T23:58:42.312Z,72.90
